sensor_id;sensor_type;location;lat;lon;timestamp;pressure;altitude;pressure_sealevel;temperature
80246;BMP280;69558;39.208;-77.226;2024-01-30T00:02:07;100291.22;;;16.13
80246;BMP280;69558;39.208;-77.226;2024-01-30T00:04:33;100292.53;;;16.09
80246;BMP280;69558;39.208;-77.226;2024-01-30T00:06:59;100299.88;;;16.14
80246;BMP280;69558;39.208;-77.226;2024-01-30T00:09:24;100306.75;;;16.15
80246;BMP280;69558;39.208;-77.226;2024-01-30T00:11:50;100312.31;;;16.12
80246;BMP280;69558;39.208;-77.226;2024-01-30T00:14:16;100311.47;;;16.11
80246;BMP280;69558;39.208;-77.226;2024-01-30T00:16:42;100309.22;;;16.08
80246;BMP280;69558;39.208;-77.226;2024-01-30T00:19:08;100302.19;;;16.01
80246;BMP280;69558;39.208;-77.226;2024-01-30T00:21:34;100315.28;;;16.09
80246;BMP280;69558;39.208;-77.226;2024-01-30T00:23:59;100321.31;;;16.09
80246;BMP280;69558;39.208;-77.226;2024-01-30T00:26:25;100317.06;;;16.08
80246;BMP280;69558;39.208;-77.226;2024-01-30T00:28:51;100325.75;;;16.09
80246;BMP280;69558;39.208;-77.226;2024-01-30T00:31:17;100326.72;;;16.08
80246;BMP280;69558;39.208;-77.226;2024-01-30T00:33:43;100324.25;;;16.06
80246;BMP280;69558;39.208;-77.226;2024-01-30T00:36:09;100323.81;;;16.03
80246;BMP280;69558;39.208;-77.226;2024-01-30T00:38:36;100333.28;;;16.04
80246;BMP280;69558;39.208;-77.226;2024-01-30T00:41:02;100331.78;;;16.01
80246;BMP280;69558;39.208;-77.226;2024-01-30T00:43:28;100339.81;;;16.00
80246;BMP280;69558;39.208;-77.226;2024-01-30T00:45:55;100343.25;;;16.00
80246;BMP280;69558;39.208;-77.226;2024-01-30T00:48:21;100342.25;;;16.01
80246;BMP280;69558;39.208;-77.226;2024-01-30T00:50:46;100349.78;;;16.04
80246;BMP280;69558;39.208;-77.226;2024-01-30T00:53:12;100351.41;;;16.05
80246;BMP280;69558;39.208;-77.226;2024-01-30T00:55:38;100347.50;;;16.09
80246;BMP280;69558;39.208;-77.226;2024-01-30T00:58:04;100352.72;;;16.09
80246;BMP280;69558;39.208;-77.226;2024-01-30T01:00:30;100352.22;;;16.14
80246;BMP280;69558;39.208;-77.226;2024-01-30T01:03:00;100362.34;;;16.17
80246;BMP280;69558;39.208;-77.226;2024-01-30T01:05:26;100367.72;;;16.15
80246;BMP280;69558;39.208;-77.226;2024-01-30T01:07:53;100367.91;;;16.14
80246;BMP280;69558;39.208;-77.226;2024-01-30T01:10:19;100369.34;;;16.16
80246;BMP280;69558;39.208;-77.226;2024-01-30T01:12:45;100367.25;;;16.20
80246;BMP280;69558;39.208;-77.226;2024-01-30T01:15:11;100382.63;;;16.23
80246;BMP280;69558;39.208;-77.226;2024-01-30T01:17:38;100380.16;;;16.21
80246;BMP280;69558;39.208;-77.226;2024-01-30T01:20:05;100392.41;;;16.21
80246;BMP280;69558;39.208;-77.226;2024-01-30T01:22:32;100382.31;;;16.18
80246;BMP280;69558;39.208;-77.226;2024-01-30T01:24:59;100385.06;;;16.16
80246;BMP280;69558;39.208;-77.226;2024-01-30T01:27:25;100402.25;;;16.19
80246;BMP280;69558;39.208;-77.226;2024-01-30T01:29:51;100401.59;;;16.17
80246;BMP280;69558;39.208;-77.226;2024-01-30T01:32:17;100388.03;;;16.05
80246;BMP280;69558;39.208;-77.226;2024-01-30T01:34:43;100407.19;;;16.14
80246;BMP280;69558;39.208;-77.226;2024-01-30T01:37:09;100413.22;;;16.14
80246;BMP280;69558;39.208;-77.226;2024-01-30T01:39:35;100410.09;;;16.11
80246;BMP280;69558;39.208;-77.226;2024-01-30T01:42:01;100417.13;;;16.10
80246;BMP280;69558;39.208;-77.226;2024-01-30T01:44:27;100421.53;;;16.10
80246;BMP280;69558;39.208;-77.226;2024-01-30T01:46:54;100419.13;;;16.08
80246;BMP280;69558;39.208;-77.226;2024-01-30T01:49:22;100414.03;;;16.07
80246;BMP280;69558;39.208;-77.226;2024-01-30T01:51:51;100412.41;;;16.06
80246;BMP280;69558;39.208;-77.226;2024-01-30T01:54:19;100419.44;;;16.05
80246;BMP280;69558;39.208;-77.226;2024-01-30T01:56:45;100422.88;;;16.06
80246;BMP280;69558;39.208;-77.226;2024-01-30T01:59:12;100418.28;;;16.00
80246;BMP280;69558;39.208;-77.226;2024-01-30T02:01:38;100429.28;;;16.03
80246;BMP280;69558;39.208;-77.226;2024-01-30T02:04:07;100432.88;;;16.02
80246;BMP280;69558;39.208;-77.226;2024-01-30T02:06:34;100434.00;;;16.00
80246;BMP280;69558;39.208;-77.226;2024-01-30T02:09:00;100431.88;;;15.95
80246;BMP280;69558;39.208;-77.226;2024-01-30T02:11:26;100442.34;;;15.95
80246;BMP280;69558;39.208;-77.226;2024-01-30T02:13:53;100441.72;;;15.93
80246;BMP280;69558;39.208;-77.226;2024-01-30T02:16:18;100449.38;;;15.95
80246;BMP280;69558;39.208;-77.226;2024-01-30T02:18:44;100457.41;;;15.93
80246;BMP280;69558;39.208;-77.226;2024-01-30T02:21:17;100452.81;;;15.95
80246;BMP280;69558;39.208;-77.226;2024-01-30T02:23:44;100445.28;;;15.92
80246;BMP280;69558;39.208;-77.226;2024-01-30T02:26:12;100457.75;;;15.98
80246;BMP280;69558;39.208;-77.226;2024-01-30T02:28:38;100448.09;;;15.99
80246;BMP280;69558;39.208;-77.226;2024-01-30T02:31:04;100448.41;;;16.04
80246;BMP280;69558;39.208;-77.226;2024-01-30T02:33:30;100450.66;;;16.07
80246;BMP280;69558;39.208;-77.226;2024-01-30T02:35:56;100446.94;;;16.09
80246;BMP280;69558;39.208;-77.226;2024-01-30T02:38:22;100441.69;;;16.09
80246;BMP280;69558;39.208;-77.226;2024-01-30T02:40:49;100444.81;;;16.13
80246;BMP280;69558;39.208;-77.226;2024-01-30T02:43:16;100458.03;;;16.11
80246;BMP280;69558;39.208;-77.226;2024-01-30T02:45:42;100457.19;;;16.11
80246;BMP280;69558;39.208;-77.226;2024-01-30T02:48:08;100458.19;;;16.10
80246;BMP280;69558;39.208;-77.226;2024-01-30T02:50:34;100452.34;;;16.08
80246;BMP280;69558;39.208;-77.226;2024-01-30T02:53:00;100461.81;;;16.09
80246;BMP280;69558;39.208;-77.226;2024-01-30T02:55:26;100463.75;;;16.07
80246;BMP280;69558;39.208;-77.226;2024-01-30T02:57:52;100462.94;;;16.06
80246;BMP280;69558;39.208;-77.226;2024-01-30T03:00:20;100468.34;;;16.05
80246;BMP280;69558;39.208;-77.226;2024-01-30T03:02:46;100461.16;;;15.99
80246;BMP280;69558;39.208;-77.226;2024-01-30T03:05:12;100468.53;;;16.03
80246;BMP280;69558;39.208;-77.226;2024-01-30T03:07:38;100479.13;;;16.02
80246;BMP280;69558;39.208;-77.226;2024-01-30T03:10:05;100478.31;;;16.01
80246;BMP280;69558;39.208;-77.226;2024-01-30T03:12:32;100479.13;;;16.02
80246;BMP280;69558;39.208;-77.226;2024-01-30T03:14:58;100471.63;;;15.99
80246;BMP280;69558;39.208;-77.226;2024-01-30T03:17:24;100483.09;;;15.98
80246;BMP280;69558;39.208;-77.226;2024-01-30T03:19:50;100476.34;;;15.95
80246;BMP280;69558;39.208;-77.226;2024-01-30T03:22:16;100485.50;;;15.99
80246;BMP280;69558;39.208;-77.226;2024-01-30T03:24:42;100483.38;;;15.95
80246;BMP280;69558;39.208;-77.226;2024-01-30T03:27:09;100486.97;;;15.94
80246;BMP280;69558;39.208;-77.226;2024-01-30T03:29:34;100485.38;;;15.93
80246;BMP280;69558;39.208;-77.226;2024-01-30T03:32:00;100477.53;;;15.93
80246;BMP280;69558;39.208;-77.226;2024-01-30T03:34:26;100457.38;;;15.77
80246;BMP280;69558;39.208;-77.226;2024-01-30T03:36:52;100474.22;;;15.90
80246;BMP280;69558;39.208;-77.226;2024-01-30T03:39:18;100488.63;;;15.95
80246;BMP280;69558;39.208;-77.226;2024-01-30T03:41:44;100491.22;;;15.95
80246;BMP280;69558;39.208;-77.226;2024-01-30T03:44:10;100484.53;;;15.92
80246;BMP280;69558;39.208;-77.226;2024-01-30T03:46:36;100481.25;;;15.90
80246;BMP280;69558;39.208;-77.226;2024-01-30T03:49:02;100489.09;;;15.90
80246;BMP280;69558;39.208;-77.226;2024-01-30T03:51:27;100483.06;;;15.89
80246;BMP280;69558;39.208;-77.226;2024-01-30T03:53:53;100491.72;;;15.90
80246;BMP280;69558;39.208;-77.226;2024-01-30T03:56:19;100487.31;;;15.90
80246;BMP280;69558;39.208;-77.226;2024-01-30T03:58:45;100489.28;;;15.88
80246;BMP280;69558;39.208;-77.226;2024-01-30T04:01:14;100491.06;;;15.88
80246;BMP280;69558;39.208;-77.226;2024-01-30T04:03:41;100492.88;;;15.87
80246;BMP280;69558;39.208;-77.226;2024-01-30T04:06:07;100493.84;;;15.86
80246;BMP280;69558;39.208;-77.226;2024-01-30T04:08:33;100492.22;;;15.85
80246;BMP280;69558;39.208;-77.226;2024-01-30T04:10:58;100495.81;;;15.84
80246;BMP280;69558;39.208;-77.226;2024-01-30T04:13:24;100499.25;;;15.85
80246;BMP280;69558;39.208;-77.226;2024-01-30T04:15:50;100495.81;;;15.84
80246;BMP280;69558;39.208;-77.226;2024-01-30T04:18:16;100497.94;;;15.81
80246;BMP280;69558;39.208;-77.226;2024-01-30T04:20:42;100497.59;;;15.76
80246;BMP280;69558;39.208;-77.226;2024-01-30T04:23:07;100495.28;;;15.73
80246;BMP280;69558;39.208;-77.226;2024-01-30T04:25:33;100485.13;;;15.62
80246;BMP280;69558;39.208;-77.226;2024-01-30T04:27:59;100499.06;;;15.70
80246;BMP280;69558;39.208;-77.226;2024-01-30T04:30:25;100505.28;;;15.69
80246;BMP280;69558;39.208;-77.226;2024-01-30T04:32:51;100503.50;;;15.70
80246;BMP280;69558;39.208;-77.226;2024-01-30T04:35:17;100513.13;;;15.69
80246;BMP280;69558;39.208;-77.226;2024-01-30T04:37:43;100504.47;;;15.69
80246;BMP280;69558;39.208;-77.226;2024-01-30T04:40:09;100510.34;;;15.71
80246;BMP280;69558;39.208;-77.226;2024-01-30T04:42:35;100514.44;;;15.73
80246;BMP280;69558;39.208;-77.226;2024-01-30T04:45:00;100515.91;;;15.76
80246;BMP280;69558;39.208;-77.226;2024-01-30T04:47:27;100514.13;;;15.76
80246;BMP280;69558;39.208;-77.226;2024-01-30T04:49:53;100511.66;;;15.75
80246;BMP280;69558;39.208;-77.226;2024-01-30T04:52:19;100518.84;;;15.81
80246;BMP280;69558;39.208;-77.226;2024-01-30T04:54:45;100516.91;;;15.83
80246;BMP280;69558;39.208;-77.226;2024-01-30T04:57:11;100518.53;;;15.84
80246;BMP280;69558;39.208;-77.226;2024-01-30T04:59:37;100514.78;;;15.86
80246;BMP280;69558;39.208;-77.226;2024-01-30T05:02:03;100514.44;;;15.89
80246;BMP280;69558;39.208;-77.226;2024-01-30T05:04:29;100504.50;;;15.93
80246;BMP280;69558;39.208;-77.226;2024-01-30T05:06:55;100505.28;;;15.94
80246;BMP280;69558;39.208;-77.226;2024-01-30T05:09:21;100496.78;;;15.92
80246;BMP280;69558;39.208;-77.226;2024-01-30T05:11:47;100507.56;;;15.97
80246;BMP280;69558;39.208;-77.226;2024-01-30T05:14:13;100515.31;;;15.98
80246;BMP280;69558;39.208;-77.226;2024-01-30T05:16:40;100515.31;;;15.98
80246;BMP280;69558;39.208;-77.226;2024-01-30T05:19:07;100514.63;;;15.96
80246;BMP280;69558;39.208;-77.226;2024-01-30T05:21:33;100517.22;;;15.96
80246;BMP280;69558;39.208;-77.226;2024-01-30T05:23:58;100518.22;;;15.95
80246;BMP280;69558;39.208;-77.226;2024-01-30T05:26:25;100511.34;;;15.94
80246;BMP280;69558;39.208;-77.226;2024-01-30T05:28:50;100511.53;;;15.93
80246;BMP280;69558;39.208;-77.226;2024-01-30T05:31:17;100511.34;;;15.94
80246;BMP280;69558;39.208;-77.226;2024-01-30T05:33:42;100511.53;;;15.93
80246;BMP280;69558;39.208;-77.226;2024-01-30T05:36:11;100508.72;;;15.86
80246;BMP280;69558;39.208;-77.226;2024-01-30T05:38:37;100526.06;;;15.87
80246;BMP280;69558;39.208;-77.226;2024-01-30T05:41:03;100515.25;;;15.82
80246;BMP280;69558;39.208;-77.226;2024-01-30T05:43:28;100519.50;;;15.83
80246;BMP280;69558;39.208;-77.226;2024-01-30T05:45:54;100510.34;;;15.79
80246;BMP280;69558;39.208;-77.226;2024-01-30T05:48:20;100514.13;;;15.84
80246;BMP280;69558;39.208;-77.226;2024-01-30T05:50:46;100508.22;;;15.82
80246;BMP280;69558;39.208;-77.226;2024-01-30T05:53:12;100495.97;;;15.75
80246;BMP280;69558;39.208;-77.226;2024-01-30T05:55:38;100511.50;;;15.84
80246;BMP280;69558;39.208;-77.226;2024-01-30T05:58:04;100521.47;;;15.89
80246;BMP280;69558;39.208;-77.226;2024-01-30T06:00:30;100515.75;;;15.94
80246;BMP280;69558;39.208;-77.226;2024-01-30T06:02:55;100520.00;;;15.95
80246;BMP280;69558;39.208;-77.226;2024-01-30T06:05:21;100514.63;;;15.96
80246;BMP280;69558;39.208;-77.226;2024-01-30T06:07:47;100522.47;;;15.96
80246;BMP280;69558;39.208;-77.226;2024-01-30T06:10:13;100518.88;;;15.97
80246;BMP280;69558;39.208;-77.226;2024-01-30T06:12:39;100529.31;;;15.97
80246;BMP280;69558;39.208;-77.226;2024-01-30T06:15:05;100526.88;;;15.96
80246;BMP280;69558;39.208;-77.226;2024-01-30T06:17:32;100529.66;;;15.94
80246;BMP280;69558;39.208;-77.226;2024-01-30T06:19:58;100528.84;;;15.94
80246;BMP280;69558;39.208;-77.226;2024-01-30T06:22:24;100530.66;;;15.93
80246;BMP280;69558;39.208;-77.226;2024-01-30T06:24:50;100525.56;;;15.92
80246;BMP280;69558;39.208;-77.226;2024-01-30T06:27:16;100525.72;;;15.90
80246;BMP280;69558;39.208;-77.226;2024-01-30T06:29:43;100524.75;;;15.91
80246;BMP280;69558;39.208;-77.226;2024-01-30T06:32:09;100528.50;;;15.88
80246;BMP280;69558;39.208;-77.226;2024-01-30T06:34:36;100527.69;;;15.88
80246;BMP280;69558;39.208;-77.226;2024-01-30T06:37:02;100529.31;;;15.89
80246;BMP280;69558;39.208;-77.226;2024-01-30T06:39:28;100536.34;;;15.88
80246;BMP280;69558;39.208;-77.226;2024-01-30T06:41:53;100536.34;;;15.88
80246;BMP280;69558;39.208;-77.226;2024-01-30T06:44:19;100551.22;;;15.88
80246;BMP280;69558;39.208;-77.226;2024-01-30T06:46:45;100541.91;;;15.85
80246;BMP280;69558;39.208;-77.226;2024-01-30T06:49:11;100545.66;;;15.83
80246;BMP280;69558;39.208;-77.226;2024-01-30T06:51:37;100540.44;;;15.83
80246;BMP280;69558;39.208;-77.226;2024-01-30T06:54:03;100546.50;;;15.83
80246;BMP280;69558;39.208;-77.226;2024-01-30T06:56:30;100546.50;;;15.83
80246;BMP280;69558;39.208;-77.226;2024-01-30T06:58:55;100547.94;;;15.78
80246;BMP280;69558;39.208;-77.226;2024-01-30T07:01:27;100551.88;;;15.74
80246;BMP280;69558;39.208;-77.226;2024-01-30T07:03:53;100550.56;;;15.70
80246;BMP280;69558;39.208;-77.226;2024-01-30T07:06:20;100549.38;;;15.72
80246;BMP280;69558;39.208;-77.226;2024-01-30T07:08:46;100543.53;;;15.70
80246;BMP280;69558;39.208;-77.226;2024-01-30T07:11:18;100538.78;;;15.74
80246;BMP280;69558;39.208;-77.226;2024-01-30T07:13:45;100547.47;;;15.74
80246;BMP280;69558;39.208;-77.226;2024-01-30T07:16:12;100550.41;;;15.79
80246;BMP280;69558;39.208;-77.226;2024-01-30T07:18:38;100544.03;;;15.74
80246;BMP280;69558;39.208;-77.226;2024-01-30T07:21:04;100556.47;;;15.80
80246;BMP280;69558;39.208;-77.226;2024-01-30T07:23:30;100551.06;;;15.81
80246;BMP280;69558;39.208;-77.226;2024-01-30T07:25:56;100555.31;;;15.82
80246;BMP280;69558;39.208;-77.226;2024-01-30T07:28:21;100550.91;;;15.83
80246;BMP280;69558;39.208;-77.226;2024-01-30T07:30:47;100564.47;;;15.86
80246;BMP280;69558;39.208;-77.226;2024-01-30T07:33:14;100557.78;;;15.92
80246;BMP280;69558;39.208;-77.226;2024-01-30T07:35:40;100572.16;;;15.96
80246;BMP280;69558;39.208;-77.226;2024-01-30T07:38:05;100572.16;;;15.96
80246;BMP280;69558;39.208;-77.226;2024-01-30T07:40:32;100566.28;;;15.94
80246;BMP280;69558;39.208;-77.226;2024-01-30T07:42:59;100562.69;;;15.95
80246;BMP280;69558;39.208;-77.226;2024-01-30T07:45:25;100562.19;;;15.92
80246;BMP280;69558;39.208;-77.226;2024-01-30T07:47:53;100564.97;;;15.90
80246;BMP280;69558;39.208;-77.226;2024-01-30T07:50:19;100559.56;;;15.92
80246;BMP280;69558;39.208;-77.226;2024-01-30T07:52:44;100560.72;;;15.89
80246;BMP280;69558;39.208;-77.226;2024-01-30T07:55:10;100561.53;;;15.89
80246;BMP280;69558;39.208;-77.226;2024-01-30T07:57:40;100562.84;;;15.85
80246;BMP280;69558;39.208;-77.226;2024-01-30T08:00:07;100568.41;;;15.82
80246;BMP280;69558;39.208;-77.226;2024-01-30T08:02:33;100569.38;;;15.81
80246;BMP280;69558;39.208;-77.226;2024-01-30T08:04:59;100565.78;;;15.82
80246;BMP280;69558;39.208;-77.226;2024-01-30T08:07:25;100571.00;;;15.82
80246;BMP280;69558;39.208;-77.226;2024-01-30T08:09:51;100575.25;;;15.83
80246;BMP280;69558;39.208;-77.226;2024-01-30T08:12:17;100579.50;;;15.84
80246;BMP280;69558;39.208;-77.226;2024-01-30T08:14:42;100579.50;;;15.84
80246;BMP280;69558;39.208;-77.226;2024-01-30T08:17:08;100580.66;;;15.90
80246;BMP280;69558;39.208;-77.226;2024-01-30T08:19:34;100576.75;;;15.94
80246;BMP280;69558;39.208;-77.226;2024-01-30T08:22:00;100572.84;;;15.98
80246;BMP280;69558;39.208;-77.226;2024-01-30T08:24:26;100562.41;;;15.98
80246;BMP280;69558;39.208;-77.226;2024-01-30T08:26:52;100563.34;;;15.97
80246;BMP280;69558;39.208;-77.226;2024-01-30T08:29:18;100567.75;;;15.97
80246;BMP280;69558;39.208;-77.226;2024-01-30T08:31:43;100576.41;;;15.97
80246;BMP280;69558;39.208;-77.226;2024-01-30T08:34:11;100579.19;;;15.96
80246;BMP280;69558;39.208;-77.226;2024-01-30T08:36:37;100570.84;;;15.92
80246;BMP280;69558;39.208;-77.226;2024-01-30T08:39:03;100577.41;;;15.96
80246;BMP280;69558;39.208;-77.226;2024-01-30T08:41:28;100571.19;;;15.97
80246;BMP280;69558;39.208;-77.226;2024-01-30T08:43:55;100571.50;;;15.94
80246;BMP280;69558;39.208;-77.226;2024-01-30T08:46:20;100566.13;;;15.96
80246;BMP280;69558;39.208;-77.226;2024-01-30T08:48:46;100560.88;;;15.96
80246;BMP280;69558;39.208;-77.226;2024-01-30T08:51:13;100557.44;;;15.95
80246;BMP280;69558;39.208;-77.226;2024-01-30T08:53:40;100547.16;;;15.94
80246;BMP280;69558;39.208;-77.226;2024-01-30T08:56:06;100554.22;;;15.93
80246;BMP280;69558;39.208;-77.226;2024-01-30T08:58:32;100548.97;;;15.93
80246;BMP280;69558;39.208;-77.226;2024-01-30T09:00:58;100547.16;;;15.94
80246;BMP280;69558;39.208;-77.226;2024-01-30T09:03:24;100538.66;;;15.92
80246;BMP280;69558;39.208;-77.226;2024-01-30T09:05:50;100542.75;;;15.94
80246;BMP280;69558;39.208;-77.226;2024-01-30T09:08:16;100548.97;;;15.93
80246;BMP280;69558;39.208;-77.226;2024-01-30T09:10:42;100554.22;;;15.93
80246;BMP280;69558;39.208;-77.226;2024-01-30T09:13:08;100554.66;;;15.88
80246;BMP280;69558;39.208;-77.226;2024-01-30T09:15:34;100551.72;;;15.83
80246;BMP280;69558;39.208;-77.226;2024-01-30T09:18:01;100567.75;;;15.80
80246;BMP280;69558;39.208;-77.226;2024-01-30T09:20:27;100559.88;;;15.80
80246;BMP280;69558;39.208;-77.226;2024-01-30T09:22:53;100548.59;;;15.80
80246;BMP280;69558;39.208;-77.226;2024-01-30T09:25:19;100554.00;;;15.78
80246;BMP280;69558;39.208;-77.226;2024-01-30T09:27:45;100552.22;;;15.79
80246;BMP280;69558;39.208;-77.226;2024-01-30T09:30:10;100545.19;;;15.79
80246;BMP280;69558;39.208;-77.226;2024-01-30T09:32:36;100542.41;;;15.81
80246;BMP280;69558;39.208;-77.226;2024-01-30T09:35:02;100546.66;;;15.82
80246;BMP280;69558;39.208;-77.226;2024-01-30T09:37:28;100546.97;;;15.79
80246;BMP280;69558;39.208;-77.226;2024-01-30T09:39:54;100552.38;;;15.85
80246;BMP280;69558;39.208;-77.226;2024-01-30T09:42:36;100543.72;;;15.85
80246;BMP280;69558;39.208;-77.226;2024-01-30T09:45:05;100558.28;;;15.96
80246;BMP280;69558;39.208;-77.226;2024-01-30T09:47:39;100568.72;;;15.96
80246;BMP280;69558;39.208;-77.226;2024-01-30T09:50:06;100560.88;;;15.96
80246;BMP280;69558;39.208;-77.226;2024-01-30T09:52:32;100559.25;;;15.95
80246;BMP280;69558;39.208;-77.226;2024-01-30T09:54:59;100568.56;;;15.97
80246;BMP280;69558;39.208;-77.226;2024-01-30T09:57:26;100572.34;;;15.95
80246;BMP280;69558;39.208;-77.226;2024-01-30T09:59:51;100583.00;;;15.93
80246;BMP280;69558;39.208;-77.226;2024-01-30T10:02:20;100585.59;;;15.93
80246;BMP280;69558;39.208;-77.226;2024-01-30T10:04:50;100584.59;;;15.94
80246;BMP280;69558;39.208;-77.226;2024-01-30T10:07:17;100586.72;;;15.90
80246;BMP280;69558;39.208;-77.226;2024-01-30T10:09:43;100591.78;;;15.92
80246;BMP280;69558;39.208;-77.226;2024-01-30T10:12:09;100593.44;;;15.93
80246;BMP280;69558;39.208;-77.226;2024-01-30T10:14:42;100600.28;;;15.94
80246;BMP280;69558;39.208;-77.226;2024-01-30T10:17:08;100605.84;;;15.91
80246;BMP280;69558;39.208;-77.226;2024-01-30T10:19:44;100598.69;;;15.93
80246;BMP280;69558;39.208;-77.226;2024-01-30T10:22:10;100603.22;;;15.91
80246;BMP280;69558;39.208;-77.226;2024-01-30T10:24:36;100591.28;;;15.88
80246;BMP280;69558;39.208;-77.226;2024-01-30T10:27:03;100593.09;;;15.88
80246;BMP280;69558;39.208;-77.226;2024-01-30T10:29:31;100594.38;;;15.84
80246;BMP280;69558;39.208;-77.226;2024-01-30T10:32:02;100597.31;;;15.81
80246;BMP280;69558;39.208;-77.226;2024-01-30T10:34:28;100592.25;;;15.79
80246;BMP280;69558;39.208;-77.226;2024-01-30T10:37:08;100594.06;;;15.79
80246;BMP280;69558;39.208;-77.226;2024-01-30T10:39:44;100592.56;;;15.76
80246;BMP280;69558;39.208;-77.226;2024-01-30T10:42:12;100588.63;;;15.72
80246;BMP280;69558;39.208;-77.226;2024-01-30T10:45:02;100595.19;;;15.76
80246;BMP280;69558;39.208;-77.226;2024-01-30T10:47:34;100595.97;;;15.77
80246;BMP280;69558;39.208;-77.226;2024-01-30T10:50:02;100585.19;;;15.72
80246;BMP280;69558;39.208;-77.226;2024-01-30T10:52:32;100599.13;;;15.80
80246;BMP280;69558;39.208;-77.226;2024-01-30T10:54:59;100606.81;;;15.82
80246;BMP280;69558;39.208;-77.226;2024-01-30T10:57:26;100610.41;;;15.81
80246;BMP280;69558;39.208;-77.226;2024-01-30T10:59:59;100617.63;;;15.87
80246;BMP280;69558;39.208;-77.226;2024-01-30T11:02:26;100596.19;;;15.83
80246;BMP280;69558;39.208;-77.226;2024-01-30T11:04:59;100617.63;;;15.95
80246;BMP280;69558;39.208;-77.226;2024-01-30T11:07:27;100611.28;;;15.98
80246;BMP280;69558;39.208;-77.226;2024-01-30T11:09:59;100611.09;;;15.99
80246;BMP280;69558;39.208;-77.226;2024-01-30T11:12:30;100625.00;;;16.00
80246;BMP280;69558;39.208;-77.226;2024-01-30T11:17:42;100616.53;;;15.98
80246;BMP280;69558;39.208;-77.226;2024-01-30T11:20:15;100601.91;;;15.87
80246;BMP280;69558;39.208;-77.226;2024-01-30T11:22:42;100616.81;;;15.95
80246;BMP280;69558;39.208;-77.226;2024-01-30T11:25:16;100631.38;;;15.97
80246;BMP280;69558;39.208;-77.226;2024-01-30T11:27:43;100633.16;;;15.97
80246;BMP280;69558;39.208;-77.226;2024-01-30T11:30:10;100629.88;;;15.95
80246;BMP280;69558;39.208;-77.226;2024-01-30T11:32:36;100627.09;;;15.88
80246;BMP280;69558;39.208;-77.226;2024-01-30T11:35:04;100646.56;;;15.94
80246;BMP280;69558;39.208;-77.226;2024-01-30T11:37:36;100653.63;;;15.93
80246;BMP280;69558;39.208;-77.226;2024-01-30T11:40:04;100650.47;;;15.89
80246;BMP280;69558;39.208;-77.226;2024-01-30T11:42:32;100661.59;;;15.92
80246;BMP280;69558;39.208;-77.226;2024-01-30T11:45:00;100667.81;;;15.90
80246;BMP280;69558;39.208;-77.226;2024-01-30T11:47:28;100676.66;;;15.89
80246;BMP280;69558;39.208;-77.226;2024-01-30T11:49:54;100679.41;;;15.88
80246;BMP280;69558;39.208;-77.226;2024-01-30T11:52:20;100675.81;;;15.89
80246;BMP280;69558;39.208;-77.226;2024-01-30T11:54:47;100683.50;;;15.82
80246;BMP280;69558;39.208;-77.226;2024-01-30T11:57:12;100682.00;;;15.80
80246;BMP280;69558;39.208;-77.226;2024-01-30T11:59:38;100670.22;;;15.76
80246;BMP280;69558;39.208;-77.226;2024-01-30T12:02:04;100670.50;;;15.73
80246;BMP280;69558;39.208;-77.226;2024-01-30T12:04:30;100671.69;;;15.70
80246;BMP280;69558;39.208;-77.226;2024-01-30T12:06:56;100677.53;;;15.72
80246;BMP280;69558;39.208;-77.226;2024-01-30T12:09:22;100672.31;;;15.72
80246;BMP280;69558;39.208;-77.226;2024-01-30T12:11:48;100673.00;;;15.74
80246;BMP280;69558;39.208;-77.226;2024-01-30T12:14:17;100672.84;;;15.76
80246;BMP280;69558;39.208;-77.226;2024-01-30T12:16:48;100674.44;;;15.77
80246;BMP280;69558;39.208;-77.226;2024-01-30T12:19:25;100677.06;;;15.77
80246;BMP280;69558;39.208;-77.226;2024-01-30T12:21:58;100680.69;;;15.76
80246;BMP280;69558;39.208;-77.226;2024-01-30T12:24:25;100680.72;;;15.84
80246;BMP280;69558;39.208;-77.226;2024-01-30T12:26:52;100683.66;;;15.89
80246;BMP280;69558;39.208;-77.226;2024-01-30T12:29:20;100694.94;;;15.89
80246;BMP280;69558;39.208;-77.226;2024-01-30T12:31:47;100693.81;;;15.92
80246;BMP280;69558;39.208;-77.226;2024-01-30T12:34:16;100695.50;;;15.93
80246;BMP280;69558;39.208;-77.226;2024-01-30T12:36:43;100697.09;;;15.94
80246;BMP280;69558;39.208;-77.226;2024-01-30T12:39:12;100697.91;;;15.95
80246;BMP280;69558;39.208;-77.226;2024-01-30T12:41:40;100690.25;;;15.93
80246;BMP280;69558;39.208;-77.226;2024-01-30T12:44:06;100701.50;;;15.94
80246;BMP280;69558;39.208;-77.226;2024-01-30T12:46:34;100703.16;;;15.95
80246;BMP280;69558;39.208;-77.226;2024-01-30T12:49:00;100709.84;;;15.89
80246;BMP280;69558;39.208;-77.226;2024-01-30T12:51:26;100710.81;;;15.88
80246;BMP280;69558;39.208;-77.226;2024-01-30T12:53:52;100708.03;;;15.89
80246;BMP280;69558;39.208;-77.226;2024-01-30T12:56:18;100718.66;;;15.88
80246;BMP280;69558;39.208;-77.226;2024-01-30T12:58:43;100723.72;;;15.89
80246;BMP280;69558;39.208;-77.226;2024-01-30T13:01:10;100714.09;;;15.90
80246;BMP280;69558;39.208;-77.226;2024-01-30T13:03:35;100709.84;;;15.89
80246;BMP280;69558;39.208;-77.226;2024-01-30T13:06:02;100713.59;;;15.86
80246;BMP280;69558;39.208;-77.226;2024-01-30T13:08:28;100715.84;;;15.81
80246;BMP280;69558;39.208;-77.226;2024-01-30T13:10:54;100714.50;;;15.77
80246;BMP280;69558;39.208;-77.226;2024-01-30T13:13:20;100723.03;;;15.79
80246;BMP280;69558;39.208;-77.226;2024-01-30T13:15:47;100717.94;;;15.78
80246;BMP280;69558;39.208;-77.226;2024-01-30T13:18:13;100724.69;;;15.80
80246;BMP280;69558;39.208;-77.226;2024-01-30T13:20:39;100719.59;;;15.79
80246;BMP280;69558;39.208;-77.226;2024-01-30T13:23:04;100727.28;;;15.80
80246;BMP280;69558;39.208;-77.226;2024-01-30T13:25:30;100731.56;;;15.81
80246;BMP280;69558;39.208;-77.226;2024-01-30T13:27:56;100718.81;;;15.86
80246;BMP280;69558;39.208;-77.226;2024-01-30T13:30:22;100729.63;;;15.92
80246;BMP280;69558;39.208;-77.226;2024-01-30T13:32:48;100726.69;;;15.95